TimeEST,TemperatureF,Dew PointF,Humidity,Sea Level PressureIn,VisibilityMPH,Wind Direction,Wind SpeedMPH,Gust SpeedMPH,PrecipitationIn,Events,Conditions,WindDirDegrees,DateUTC
12:21 AM,33.8,24.8,70,29.94,10.0,WSW,17.3,28.8,N/A,,Overcast,250,2013-01-17 05:21:00
12:51 AM,34.0,24.1,67,29.98,10.0,WSW,12.7,26.5,N/A,,Overcast,250,2013-01-17 05:51:00
1:51 AM,33.8,26.6,75,29.97,10.0,WSW,16.1,29.9,N/A,,Overcast,250,2013-01-17 06:51:00
2:51 AM,35.1,26.1,70,30.01,10.0,West,17.3,25.3,N/A,,Overcast,260,2013-01-17 07:51:00
3:51 AM,35.1,28.0,76,30.03,10.0,West,12.7,20.7,N/A,,Overcast,260,2013-01-17 08:51:00
4:49 AM,35.6,28.4,75,30.02,10.0,West,12.7,20.7,N/A,,Overcast,260,2013-01-17 09:49:00
4:51 AM,35.1,28.0,76,30.04,10.0,West,11.5,19.6,N/A,,Overcast,260,2013-01-17 09:51:00
5:19 AM,35.6,28.4,75,30.02,10.0,West,10.4,17.3,N/A,,Overcast,280,2013-01-17 10:19:00
5:26 AM,35.6,28.4,75,30.02,10.0,West,11.5,17.3,N/A,,Overcast,270,2013-01-17 10:26:00
5:51 AM,36.0,26.1,67,30.04,10.0,West,10.4,19.6,N/A,,Overcast,270,2013-01-17 10:51:00
6:51 AM,35.1,26.1,70,30.07,10.0,West,10.4,-,N/A,,Overcast,280,2013-01-17 11:51:00
7:33 AM,35.6,24.8,65,30.07,10.0,NW,13.8,21.9,N/A,,Overcast,310,2013-01-17 12:33:00
7:51 AM,35.1,24.1,64,30.10,10.0,WNW,11.5,19.6,N/A,,Overcast,300,2013-01-17 12:51:00
8:15 AM,35.6,24.8,65,30.09,10.0,WNW,9.2,-,N/A,,Overcast,300,2013-01-17 13:15:00
8:51 AM,35.1,24.1,64,30.13,10.0,WNW,8.1,16.1,N/A,,Overcast,290,2013-01-17 13:51:00
9:51 AM,34.0,25.0,70,30.16,10.0,NNW,4.6,-,N/A,,Overcast,330,2013-01-17 14:51:00
10:51 AM,34.0,26.1,73,30.16,10.0,Variable,3.5,-,N/A,,Overcast,0,2013-01-17 15:51:00
11:51 AM,34.0,25.0,70,30.15,10.0,NW,5.8,-,N/A,,Overcast,310,2013-01-17 16:51:00
12:51 PM,34.0,25.0,70,30.13,10.0,WNW,6.9,-,N/A,,Overcast,300,2013-01-17 17:51:00
1:27 PM,33.8,24.8,70,30.10,10.0,WNW,6.9,-,N/A,,Overcast,300,2013-01-17 18:27:00
1:51 PM,33.1,24.1,70,30.11,10.0,NNW,8.1,-,N/A,,Overcast,330,2013-01-17 18:51:00
2:08 PM,33.8,24.8,70,30.08,10.0,NNW,8.1,-,N/A,,Scattered Clouds,340,2013-01-17 19:08:00
2:51 PM,32.0,23.0,69,30.09,10.0,NNW,8.1,-,N/A,,Mostly Cloudy,330,2013-01-17 19:51:00
3:38 PM,32.0,23.0,69,30.08,10.0,NNW,8.1,-,N/A,,Overcast,340,2013-01-17 20:38:00
3:51 PM,32.0,21.9,66,30.12,10.0,NW,8.1,-,N/A,,Overcast,320,2013-01-17 20:51:00
4:30 PM,32.0,21.2,64,30.10,10.0,NW,6.9,-,N/A,,Overcast,320,2013-01-17 21:30:00
4:51 PM,30.9,21.0,67,30.14,10.0,WNW,6.9,-,N/A,,Overcast,300,2013-01-17 21:51:00
5:40 PM,30.2,23.0,75,30.11,5.0,WNW,5.8,-,0.00,Snow,Light Snow,300,2013-01-17 22:40:00
5:51 PM,30.9,21.9,69,30.14,7.0,WNW,6.9,-,0.01,Snow,Light Snow,300,2013-01-17 22:51:00
6:16 PM,30.2,21.2,69,30.12,10.0,NW,3.5,-,0.00,,Overcast,310,2013-01-17 23:16:00
6:51 PM,30.0,23.0,75,30.15,10.0,Calm,Calm,-,0.00,,Mostly Cloudy,0,2013-01-17 23:51:00
7:42 PM,30.2,24.8,80,30.13,2.5,SW,6.9,-,0.00,Snow,Light Snow,220,2013-01-18 00:42:00
7:49 PM,30.2,24.8,80,30.13,1.8,WSW,4.6,-,0.00,Snow,Light Snow,240,2013-01-18 00:49:00
7:51 PM,30.2,24.8,80,30.13,1.5,SW,6.9,-,N/A,Snow,Light Snow,230,2013-01-18 00:51:00
8:13 PM,28.4,26.6,93,30.13,3.0,WSW,9.2,-,0.01,Snow,Light Snow,240,2013-01-18 01:13:00
8:22 PM,28.4,24.8,86,30.14,6.0,WSW,9.2,-,0.01,Snow,Light Snow,240,2013-01-18 01:22:00
8:26 PM,28.4,24.8,86,30.15,2.5,NW,12.7,-,N/A,Snow,Light Snow,310,2013-01-18 01:26:00
8:29 PM,28.4,24.8,86,30.15,0.8,NW,10.4,18.4,0.01,Snow,Light Snow,320,2013-01-18 01:29:00
8:33 PM,28.4,26.6,93,30.14,0.5,NW,8.1,18.4,0.02,Fog-Snow,Snow,320,2013-01-18 01:33:00
8:39 PM,28.4,26.6,93,30.15,1.2,NNW,8.1,17.3,N/A,Snow,Light Snow,330,2013-01-18 01:39:00
8:42 PM,28.4,24.8,86,30.15,4.0,NW,8.1,-,0.02,Snow,Light Snow,320,2013-01-18 01:42:00
8:51 PM,28.4,23.0,80,30.14,9.0,WNW,9.2,17.3,N/A,,Overcast,300,2013-01-18 01:51:00
9:17 PM,30.2,17.6,60,30.14,10.0,WNW,16.1,26.5,N/A,,Overcast,300,2013-01-18 02:17:00
9:47 PM,28.4,19.4,69,30.15,6.0,NNW,16.1,27.6,0.00,Snow,Light Snow,330,2013-01-18 02:47:00
9:51 PM,27.0,19.0,72,30.18,4.0,NNW,15.0,29.9,0.00,Snow,Light Snow,330,2013-01-18 02:51:00
10:32 PM,26.6,15.8,64,30.16,10.0,NW,15.0,27.6,0.00,,Overcast,320,2013-01-18 03:32:00
10:51 PM,26.1,14.0,60,30.19,9.0,NW,18.4,31.1,0.00,,Overcast,310,2013-01-18 03:51:00
11:51 PM,24.1,16.0,71,30.22,9.0,NW,16.1,28.8,0.00,,Overcast,320,2013-01-18 04:51:00
11:59 PM,24.8,14.0,64,30.19,10.0,NW,15.0,27.6,N/A,,Overcast,320,2013-01-18 04:59:00